SV1LH-1 Melissia GR current weather conditions

sailwx.info

Wind from 090 at 1 knots gusting 2

Air temperature 20.6° C
Dewpoint 7.2° C

Last reported at 2014-Sep-01 20:51 UTC.
Time now 2014-Sep-01 21:29 UTC

Location: N 38°03' E 023°51'.
View on Google Maps.

See reports from other nearby stations

  
Tides and Currents Weather Stations Pressure Air Temp Water Temp Dewpoint Dewpoint Depression Visibility Wind Speed Wind Dir Waves Ship Positions
date/time (UTC)wind fromknots sea level pressurealtimeterstation pressurevisibilityair tempwater tempwave heightnotes
2014-Sep-01 20:51 090 1 gusting 2 20.6
2014-Sep-01 20:46 090 0 gusting 1 20.6
2014-Sep-01 20:41 090 1 gusting 2 20.6
2014-Sep-01 20:36 090 2 gusting 3 20.6
2014-Sep-01 20:31 090 2 gusting 2 20.6
2014-Sep-01 20:26 112 0 gusting 1 20.6
2014-Sep-01 20:21 045 20.6
2014-Sep-01 20:16 090 20.6
2014-Sep-01 20:11 090 0 gusting 1 21.1
2014-Sep-01 20:06 090 1 gusting 2 21.1
2014-Sep-01 20:01 090 2 gusting 3 21.1
2014-Sep-01 19:56 090 1 gusting 3 21.1
2014-Sep-01 19:51 112 0 gusting 1 21.1
2014-Sep-01 19:46 090 0 gusting 1 21.1
2014-Sep-01 19:41 112 1 gusting 1 21.1
2014-Sep-01 19:36 090 0 gusting 1 21.1
2014-Sep-01 19:31 090 1 gusting 2 21.1
2014-Sep-01 19:26 090 1 gusting 2 21.1
2014-Sep-01 19:21 090 1 gusting 1 21.1
2014-Sep-01 19:16 090 1 gusting 2 21.1
2014-Sep-01 19:11 112 1 gusting 2 21.1
2014-Sep-01 19:06 090 21.7
2014-Sep-01 19:01 090 0 gusting 1 21.7
2014-Sep-01 18:56 090 0 gusting 1 21.7
2014-Sep-01 18:51 067 0 gusting 1 21.7
2014-Sep-01 18:46 090 21.7
2014-Sep-01 18:41 135 21.7
2014-Sep-01 18:36 112 0 gusting 1 21.7
2014-Sep-01 18:31 090 0 gusting 1 21.7
2014-Sep-01 18:26 090 0 gusting 1 21.7
2014-Sep-01 18:21 112 0 gusting 1 21.7
2014-Sep-01 18:16 112 0 gusting 1 21.7
2014-Sep-01 18:11 135 0 gusting 1 21.7
2014-Sep-01 18:06 112 1 gusting 1 21.7
2014-Sep-01 18:01 090 2 gusting 3 21.7
2014-Sep-01 17:56 090 3 gusting 4 22.2
2014-Sep-01 17:51 090 2 gusting 3 22.2
2014-Sep-01 17:46 090 0 gusting 1 22.2
2014-Sep-01 17:41 135 22.2
2014-Sep-01 17:36 135 22.2
2014-Sep-01 17:31 090 1 gusting 3 22.2
2014-Sep-01 17:26 090 1 gusting 4 22.2
2014-Sep-01 17:21 090 1 gusting 2 22.8
2014-Sep-01 17:16 225 0 gusting 1 22.8
2014-Sep-01 17:11 202 0 gusting 1 22.8
2014-Sep-01 17:06 247 0 gusting 1 22.8
2014-Sep-01 17:01 090 23.3
2014-Sep-01 16:56 247 23.3
2014-Sep-01 16:51 202 1 gusting 2 23.3
2014-Sep-01 16:46 180 1 gusting 3 23.9
2014-Sep-01 16:41 135 0 gusting 1 23.9
2014-Sep-01 16:36 202 4 gusting 5 24.4
2014-Sep-01 16:31 180 3 gusting 6 25.0
2014-Sep-01 16:26 135 2 gusting 4 25.0
2014-Sep-01 16:21 135 1 gusting 3 25.6
2014-Sep-01 16:16 225 1 gusting 3 25.6
2014-Sep-01 16:11 180 3 gusting 5 26.1
2014-Sep-01 16:06 067 3 gusting 5 26.1
2014-Sep-01 16:01 180 4 gusting 6 26.1
2014-Sep-01 15:56 180 0 gusting 2 26.1
2014-Sep-01 15:51 090 1 gusting 2 26.1
2014-Sep-01 15:46 202 2 gusting 4 26.1
2014-Sep-01 15:41 135 4 gusting 5 25.6
2014-Sep-01 15:36 112 2 gusting 3 26.1
2014-Sep-01 15:31 135 5 gusting 9 26.7
2014-Sep-01 15:26 112 3 gusting 7 26.7
2014-Sep-01 15:21 067 3 gusting 5 27.2
2014-Sep-01 15:16 112 2 gusting 4 28.3
2014-Sep-01 15:11 180 2 gusting 5 28.3
2014-Sep-01 15:06 090 2 gusting 4 28.3
2014-Sep-01 15:01 135 4 gusting 6 28.3
2014-Sep-01 14:56 090 3 gusting 6 28.3
2014-Sep-01 14:51 090 4 gusting 6 28.9
2014-Sep-01 14:46 067 3 gusting 6 29.4
2014-Sep-01 14:41 112 4 gusting 6 30.0
2014-Sep-01 14:36 112 5 gusting 6 30.0
2014-Sep-01 14:31 157 3 gusting 5 30.0
2014-Sep-01 14:26 090 3 gusting 5 30.0
2014-Sep-01 14:21 225 6 gusting 6 30.0
2014-Sep-01 14:16 135 5 gusting 7 30.0
2014-Sep-01 14:11 067 3 gusting 6 30.0
2014-Sep-01 14:06 112 2 gusting 4 30.6
2014-Sep-01 14:01 180 6 gusting 8 30.6
2014-Sep-01 13:56 090 1 gusting 3 30.6
2014-Sep-01 13:51 090 4 gusting 6 30.6
2014-Sep-01 13:46 135 3 gusting 5 30.6
2014-Sep-01 13:41 135 3 gusting 4 30.6
2014-Sep-01 13:36 202 1 gusting 3 30.6
2014-Sep-01 13:31 225 3 gusting 5 31.1
2014-Sep-01 13:26 157 6 gusting 8 31.7
2014-Sep-01 13:21 135 5 gusting 7 31.7
2014-Sep-01 13:16 270 1 gusting 3 31.7
2014-Sep-01 13:11 180 5 gusting 8 32.2
2014-Sep-01 13:06 157 3 gusting 5 32.8
2014-Sep-01 13:01 180 0 gusting 4 31.7
2014-Sep-01 12:56 225 4 gusting 6 31.7
2014-Sep-01 12:51 225 4 gusting 6 31.7
2014-Sep-01 12:46 225 4 gusting 6 31.1
2014-Sep-01 12:41 157 5 gusting 8 31.7
2014-Sep-01 12:36 180 5 gusting 8 32.2
2014-Sep-01 12:31 045 2 gusting 4 32.2
2014-Sep-01 12:26 225 0 gusting 4 32.2
2014-Sep-01 12:21 135 2 gusting 4 31.7
2014-Sep-01 12:16 202 4 gusting 7 31.7
2014-Sep-01 12:11 180 2 gusting 5 32.2
2014-Sep-01 12:06 135 4 gusting 6 32.2
2014-Sep-01 12:01 180 2 gusting 3 32.2
2014-Sep-01 11:56 225 3 gusting 5 31.7
2014-Sep-01 11:51 157 3 gusting 6 31.7
2014-Sep-01 11:46 180 3 gusting 5 31.1
2014-Sep-01 11:41 045 3 gusting 5 31.1
2014-Sep-01 11:36 247 5 gusting 6 31.1
2014-Sep-01 11:31 247 3 gusting 5 31.1
2014-Sep-01 11:26 180 1 gusting 3 31.1
2014-Sep-01 11:21 202 5 gusting 6 31.1
2014-Sep-01 11:16 202 2 gusting 4 31.7
2014-Sep-01 11:11 225 4 gusting 7 31.7
2014-Sep-01 11:06 135 2 gusting 5 31.7
2014-Sep-01 11:01 135 4 gusting 6 31.7
2014-Sep-01 10:56 31.1
2014-Sep-01 10:51 270 5 gusting 6 31.1
2014-Sep-01 10:46 135 4 gusting 8 31.7
2014-Sep-01 10:41 31.7
2014-Sep-01 10:36 202 6 gusting 7 31.7
2014-Sep-01 10:31 270 1 gusting 3 31.7
2014-Sep-01 10:26 270 3 gusting 4 31.1
2014-Sep-01 10:21 225 4 gusting 6 31.7
2014-Sep-01 10:16 067 1 gusting 2 31.1
2014-Sep-01 10:11 180 5 gusting 7 31.1
2014-Sep-01 10:06 225 6 gusting 9 31.7
2014-Sep-01 10:01 225 3 gusting 4 31.7
2014-Sep-01 09:56 180 3 gusting 6 31.7
2014-Sep-01 09:51 180 4 gusting 6 31.1
2014-Sep-01 09:46 090 1 gusting 4 31.1
2014-Sep-01 09:41 157 6 gusting 8 31.1
2014-Sep-01 09:36 180 4 gusting 5 31.7
2014-Sep-01 09:31 157 5 gusting 6 32.2
2014-Sep-01 09:26 270 1 gusting 3 31.7
2014-Sep-01 09:21 292 3 gusting 5 30.6
2014-Sep-01 09:16 157 6 gusting 8 31.1
2014-Sep-01 09:11 202 4 gusting 6 31.7
2014-Sep-01 09:06 225 1 gusting 3 31.7
2014-Sep-01 09:01 045 0 gusting 2 31.7
2014-Sep-01 08:56 180 6 gusting 7 33.3
2014-Sep-01 08:51 337 1 gusting 2 32.8
2014-Sep-01 08:46 090 31.7
2014-Sep-01 08:41 270 3 gusting 5 31.1
2014-Sep-01 08:36 202 3 gusting 5 31.1
2014-Sep-01 08:31 202 5 gusting 6 31.7
2014-Sep-01 08:26 292 2 gusting 3 31.1
2014-Sep-01 08:21 270 2 gusting 3 31.1
2014-Sep-01 08:16 202 2 gusting 3 31.1
2014-Sep-01 08:11 202 1 gusting 3 31.1
2014-Sep-01 08:06 112 2 gusting 4 30.6
2014-Sep-01 08:01 180 2 gusting 4 30.6
2014-Sep-01 07:56 202 4 gusting 5 30.6
2014-Sep-01 07:51 315 4 gusting 5 30.6
2014-Sep-01 07:46 337 0 gusting 2 30.6
2014-Sep-01 07:41 247 2 gusting 5 30.6
2014-Sep-01 07:36 225 1 gusting 3 30.6
2014-Sep-01 07:31 247 3 gusting 5 31.1
2014-Sep-01 07:26 202 1 gusting 2 31.1
2014-Sep-01 07:21 202 1 gusting 2 31.1
2014-Sep-01 07:16 270 2 gusting 3 31.7
2014-Sep-01 07:11 135 31.1
2014-Sep-01 07:06 090 0 gusting 1 30.6
2014-Sep-01 07:01 135 1 gusting 2 30.6
2014-Sep-01 06:56 157 1 gusting 2 30.0
2014-Sep-01 06:51 180 1 gusting 2 29.4
2014-Sep-01 06:46 112 2 gusting 3 29.4
2014-Sep-01 06:41 135 0 gusting 0 28.9
2014-Sep-01 06:36 135 0 gusting 2 28.3
2014-Sep-01 06:31 247 1 gusting 2 28.3
2014-Sep-01 06:26 157 2 gusting 3 27.8
2014-Sep-01 06:21 202 0 gusting 1 27.8
2014-Sep-01 06:16 225 2 gusting 3 28.3
2014-Sep-01 06:11 157 0 gusting 1 27.8
2014-Sep-01 06:06 202 1 gusting 1 27.8
2014-Sep-01 06:01 157 0 gusting 1 27.2
2014-Sep-01 05:56 180 0 gusting 1 27.2
2014-Sep-01 05:51 135 0 gusting 1 27.2
2014-Sep-01 05:46 180 26.7
2014-Sep-01 05:41 090 0 gusting 0 26.1
2014-Sep-01 05:36 270 26.1
2014-Sep-01 05:31 157 25.6
2014-Sep-01 05:26 202 25.0
2014-Sep-01 05:21 090 0 gusting 0 24.4
2014-Sep-01 05:16 157 23.9
2014-Sep-01 05:11 112 23.3
2014-Sep-01 05:06 112 22.8
2014-Sep-01 05:01 067 0 gusting 0 22.2
2014-Sep-01 04:56 067 0 gusting 0 21.7
2014-Sep-01 04:51 090 1 gusting 1 21.1
2014-Sep-01 04:46 090 20.6
2014-Sep-01 04:41 090 20.0
2014-Sep-01 04:36 112 19.4
2014-Sep-01 04:31 045 18.3
2014-Sep-01 04:26 090 0 gusting 1 17.8
2014-Sep-01 04:21 090 0 gusting 0 17.8
2014-Sep-01 04:16 112 0 gusting 1 17.8
2014-Sep-01 04:11 067 17.8
2014-Sep-01 04:06 067 1 gusting 1 17.8
2014-Sep-01 04:01 090 1 gusting 1 17.8
2014-Sep-01 03:56 090 0 gusting 1 18.3
2014-Sep-01 03:51 090 18.3
2014-Sep-01 03:46 045 18.3
2014-Sep-01 03:41 090 0 gusting 1 18.3
2014-Sep-01 03:36 090 1 gusting 2 18.3
2014-Sep-01 03:31 112 2 gusting 3 18.3
2014-Sep-01 03:26 202 1 gusting 1 18.3
2014-Sep-01 03:21 18.3
2014-Sep-01 03:16 090 0 gusting 1 18.3
2014-Sep-01 03:11 090 0 gusting 0 18.9
2014-Sep-01 03:06 045 0 gusting 0 18.9
2014-Sep-01 03:01 202 18.3
2014-Sep-01 02:56 112 0 gusting 1 18.3
2014-Sep-01 02:51 022 0 gusting 0 18.3
2014-Sep-01 02:46 225 0 gusting 1 18.3
2014-Sep-01 02:41 067 0 gusting 0 18.3
2014-Sep-01 02:36 247 0 gusting 1 18.3
2014-Sep-01 02:31 045 0 gusting 0 18.3
2014-Sep-01 02:26 225 17.8
2014-Sep-01 02:21 067 17.8
2014-Sep-01 02:16 112 17.8
2014-Sep-01 02:11 112 18.3
2014-Sep-01 02:06 112 18.3
2014-Sep-01 02:01 180 18.3
2014-Sep-01 01:56 067 18.3
2014-Sep-01 01:51 112 18.3
2014-Sep-01 01:46 022 18.3
2014-Sep-01 01:41 045 0 gusting 1 18.3
2014-Sep-01 01:36 135 1 gusting 1 17.8
2014-Sep-01 01:31 022 17.8
2014-Sep-01 01:26 022 1 gusting 3 17.8
2014-Sep-01 01:21 17.8
2014-Sep-01 01:16 112 17.8
2014-Sep-01 01:11 17.8
2014-Sep-01 01:06 090 18.3
2014-Sep-01 01:01 090 1 gusting 1 17.8
2014-Sep-01 00:56 135 17.8
2014-Sep-01 00:51 18.3
2014-Sep-01 00:46 112 1 gusting 2 18.3
2014-Sep-01 00:41 090 18.3
2014-Sep-01 00:36 022 18.9
2014-Sep-01 00:31 067 18.9
2014-Sep-01 00:26 090 18.9
2014-Sep-01 00:21 022 0 gusting 1 19.4
2014-Sep-01 00:16 067 0 gusting 0 19.4
2014-Sep-01 00:11 045 1 gusting 2 19.4
2014-Sep-01 00:06 112 1 gusting 1 19.4
2014-Sep-01 00:01 090 0 gusting 1 19.4
2014-Aug-31 23:56 090 1 gusting 2 19.4
2014-Aug-31 23:51 157 2 gusting 3 19.4
2014-Aug-31 23:46 112 1 gusting 2 18.9
2014-Aug-31 23:41 135 18.9
2014-Aug-31 23:36 112 1 gusting 2 18.9
2014-Aug-31 23:31 135 18.9
2014-Aug-31 23:26 090 0 gusting 1 18.9
2014-Aug-31 23:21 135 0 gusting 1 18.9
2014-Aug-31 23:16 225 18.9
2014-Aug-31 23:11 202 18.9
2014-Aug-31 23:06 337 0 gusting 0 18.9
2014-Aug-31 23:01 225 18.9
2014-Aug-31 22:56 022 0 gusting 0 18.9
2014-Aug-31 22:51 157 18.9
2014-Aug-31 22:46 067 0 gusting 0 18.9
2014-Aug-31 22:41 112 18.9
2014-Aug-31 22:36 18.9
2014-Aug-31 22:31 247 19.4
2014-Aug-31 22:26 045 0 gusting 1 19.4
2014-Aug-31 22:21 112 0 gusting 1 19.4
2014-Aug-31 22:16 090 19.4
2014-Aug-31 22:11 090 0 gusting 0 19.4
2014-Aug-31 22:06 067 0 gusting 1 19.4
2014-Aug-31 22:01 090 1 gusting 1 18.9
2014-Aug-31 21:56 315 18.9
2014-Aug-31 21:51 315 18.9
2014-Aug-31 21:46 022 19.4
2014-Aug-31 21:41 090 19.4
2014-Aug-31 21:36 157 0 gusting 0 19.4
2014-Aug-31 21:31 045 19.4
2014-Aug-31 21:26 135 19.4
2014-Aug-31 21:21 135 20.0
2014-Aug-31 21:16 112 20.0
2014-Aug-31 21:11 112 20.0
2014-Aug-31 21:06 202 20.6
2014-Aug-31 21:01 337 20.6
2014-Aug-31 20:56 022 20.6
2014-Aug-31 20:51 180 21.1
2014-Aug-31 20:46 180 0 gusting 1 21.1
2014-Aug-31 20:41 315 21.7
2014-Aug-31 20:36 21.7
2014-Aug-31 20:31 022 2 gusting 3 21.7
2014-Aug-31 20:26 022 1 gusting 2 21.7
2014-Aug-31 20:21 21.7
2014-Aug-31 20:16 022 1 gusting 2 21.7
2014-Aug-31 20:11 045 0 gusting 2 21.7
2014-Aug-31 20:06 270 0 gusting 1 21.7
2014-Aug-31 20:01 045 1 gusting 4 21.7
2014-Aug-31 19:56 067 2 gusting 4 21.7
2014-Aug-31 19:51 090 3 gusting 6 21.7
2014-Aug-31 19:46 067 1 gusting 4 21.7
2014-Aug-31 19:41 045 2 gusting 5 21.7
2014-Aug-31 19:36 045 2 gusting 3 21.7
2014-Aug-31 19:31 045 3 gusting 4 21.7
2014-Aug-31 19:26 045 2 gusting 3 21.7
2014-Aug-31 19:21 045 1 gusting 2 21.7
2014-Aug-31 19:16 022 1 gusting 3 21.7
2014-Aug-31 19:11 090 3 gusting 5 21.7
2014-Aug-31 19:06 045 2 gusting 3 21.7
2014-Aug-31 19:01 22.2
2014-Aug-31 18:56 22.2
2014-Aug-31 18:51 337 2 gusting 3 22.2
2014-Aug-31 18:46 022 2 gusting 3 22.2
2014-Aug-31 18:41 022 2 gusting 4 22.2
2014-Aug-31 18:36 315 2 gusting 3 22.2
2014-Aug-31 18:31 337 1 gusting 3 22.2
2014-Aug-31 18:26 22.2
2014-Aug-31 18:21 247 0 gusting 1 22.2
2014-Aug-31 18:16 292 1 gusting 1 22.2
2014-Aug-31 18:11 292 22.2
2014-Aug-31 18:06 270 0 gusting 1 22.2
2014-Aug-31 18:01 22.2
2014-Aug-31 17:56 22.2
2014-Aug-31 17:51 337 1 gusting 2 22.8
2014-Aug-31 17:46 337 0 gusting 1 22.2
2014-Aug-31 17:41 067 22.2
2014-Aug-31 17:36 315 2 gusting 3 22.8
2014-Aug-31 17:31 22.8
2014-Aug-31 17:26 022 1 gusting 3 22.8
2014-Aug-31 17:21 292 2 gusting 3 22.8
2014-Aug-31 17:16 22.8
2014-Aug-31 17:11 022 1 gusting 3 22.8
2014-Aug-31 17:06 23.3
2014-Aug-31 17:01 315 1 gusting 3 23.3
2014-Aug-31 16:56 23.3
2014-Aug-31 16:51 23.9
2014-Aug-31 16:46 022 0 gusting 2 23.9
2014-Aug-31 16:41 24.4
2014-Aug-31 16:36 045 2 gusting 4 25.0
2014-Aug-31 16:31 045 3 gusting 6 25.0
2014-Aug-31 16:26 045 5 gusting 6 25.0
2014-Aug-31 16:21 022 2 gusting 3 25.0
2014-Aug-31 16:16 25.0
2014-Aug-31 16:11 022 2 gusting 6 25.0
2014-Aug-31 16:06 202 2 gusting 5 25.6
2014-Aug-31 16:01 045 3 gusting 5 25.6
2014-Aug-31 15:56 022 4 gusting 6 25.6
2014-Aug-31 15:51 26.1
2014-Aug-31 15:46 045 4 gusting 6 26.1
2014-Aug-31 15:41 045 6 gusting 7 26.7
2014-Aug-31 15:36 045 1 gusting 3 26.7
2014-Aug-31 15:31 045 2 gusting 5 27.2
2014-Aug-31 15:26 022 0 gusting 2 27.8
2014-Aug-31 15:21 067 4 gusting 6 27.8
2014-Aug-31 15:16 090 3 gusting 6 28.3
2014-Aug-31 15:11 045 5 gusting 7 28.9
2014-Aug-31 15:06 090 1 gusting 2 28.3
2014-Aug-31 15:01 022 6 gusting 11 28.9
2014-Aug-31 14:56 045 5 gusting 8 28.9
2014-Aug-31 14:51 045 2 gusting 5 28.9
2014-Aug-31 14:46 045 4 gusting 6 28.9
2014-Aug-31 14:41 045 1 gusting 2 29.4
2014-Aug-31 14:36 090 4 gusting 6 29.4
2014-Aug-31 14:31 045 5 gusting 8 29.4
2014-Aug-31 14:26 30.0
2014-Aug-31 14:21 30.0
2014-Aug-31 14:16 180 4 gusting 6 30.0
2014-Aug-31 14:11 022 6 gusting 10 30.0
2014-Aug-31 14:06 067 3 gusting 6 30.6
2014-Aug-31 14:01 022 6 gusting 9 30.0
2014-Aug-31 13:56 30.0
2014-Aug-31 13:51 022 7 gusting 11 30.0
2014-Aug-31 13:46 247 3 gusting 6 30.0
2014-Aug-31 13:41 30.6
2014-Aug-31 13:36 045 2 gusting 4 30.6
2014-Aug-31 13:31 337 3 gusting 6 30.6
2014-Aug-31 13:26 315 2 gusting 4 30.0
2014-Aug-31 13:21 30.0
2014-Aug-31 13:16 30.0
2014-Aug-31 13:11 30.0
2014-Aug-31 13:06 315 5 gusting 8 30.0
2014-Aug-31 13:01 022 6 gusting 9 30.6
2014-Aug-31 12:56 292 0 gusting 1 30.0
2014-Aug-31 12:51 30.0
2014-Aug-31 12:46 022 6 gusting 8 30.0
2014-Aug-31 12:41 337 9 gusting 13 31.1
2014-Aug-31 12:36 337 3 gusting 5 30.6
2014-Aug-31 12:31 292 3 gusting 5 30.0
2014-Aug-31 12:26 270 6 gusting 8 30.6
2014-Aug-31 12:21 270 3 gusting 6 30.6
2014-Aug-31 12:16 30.6
2014-Aug-31 12:11 30.0
2014-Aug-31 12:06 337 5 gusting 7 30.0
2014-Aug-31 12:01 247 6 gusting 9 30.0
2014-Aug-31 11:56 022 4 gusting 6 30.0
2014-Aug-31 11:51 090 3 gusting 7 30.6
2014-Aug-31 11:46 022 6 gusting 11 31.1
2014-Aug-31 11:41 045 2 gusting 3 30.6
2014-Aug-31 11:36 067 2 gusting 4 30.0
2014-Aug-31 11:31 337 6 gusting 8 30.0
2014-Aug-31 11:26 022 4 gusting 7 30.6
2014-Aug-31 11:21 045 2 gusting 6 30.6
2014-Aug-31 11:16 292 3 gusting 4 30.6
2014-Aug-31 11:11 30.0
2014-Aug-31 11:06 225 2 gusting 4 30.0
2014-Aug-31 11:01 045 7 gusting 11 30.0
2014-Aug-31 10:56 315 0 gusting 3 29.4
2014-Aug-31 10:51 29.4
2014-Aug-31 10:46 29.4
2014-Aug-31 10:41 29.4
2014-Aug-31 10:36 022 7 gusting 9 30.0
2014-Aug-31 10:31 29.4
2014-Aug-31 10:26 29.4
2014-Aug-31 10:21 292 5 gusting 7 29.4
2014-Aug-31 10:16 337 6 gusting 9 29.4
2014-Aug-31 10:11 247 4 gusting 6 28.9
2014-Aug-31 10:06 337 4 gusting 6 28.9
2014-Aug-31 10:01 090 5 gusting 8 28.9
2014-Aug-31 09:56 022 2 gusting 4 28.9
2014-Aug-31 09:51 180 3 gusting 6 28.9
2014-Aug-31 09:46 28.9
2014-Aug-31 09:41 045 6 gusting 8 28.9
2014-Aug-31 09:36 022 3 gusting 5 28.9
2014-Aug-31 09:31 315 6 gusting 10 28.9
2014-Aug-31 09:26 28.9
2014-Aug-31 09:21 315 4 gusting 6 28.9
2014-Aug-31 09:16 29.4
2014-Aug-31 09:11 28.9
2014-Aug-31 09:06 067 3 gusting 6 28.9
2014-Aug-31 09:01 337 2 gusting 6 28.3
2014-Aug-31 08:56 315 8 gusting 15 28.3
2014-Aug-31 08:51 270 4 gusting 6 28.3
2014-Aug-31 08:46 045 7 gusting 10 28.3
2014-Aug-31 08:41 022 6 gusting 8 28.9
2014-Aug-31 08:36 28.3
2014-Aug-31 08:31 022 6 gusting 10 28.3
2014-Aug-31 08:26 28.3
2014-Aug-31 08:21 022 3 gusting 6 28.3
2014-Aug-31 08:16 27.8
2014-Aug-31 08:11 27.8
2014-Aug-31 08:06 27.8
2014-Aug-31 08:01 045 8 gusting 11 27.8
2014-Aug-31 07:56 045 3 gusting 6 27.8
2014-Aug-31 07:51 27.8
2014-Aug-31 07:46 225 2 gusting 5 27.2
2014-Aug-31 07:41 337 2 gusting 5 27.2
2014-Aug-31 07:36 022 7 gusting 10 26.7
2014-Aug-31 07:31 26.7
2014-Aug-31 07:26 26.7
2014-Aug-31 07:21 337 5 gusting 8 26.7
2014-Aug-31 07:16 022 5 gusting 9 26.1
2014-Aug-31 07:11 26.1
2014-Aug-31 07:06 315 6 gusting 7 25.6
2014-Aug-31 07:01 180 4 gusting 6 25.6
2014-Aug-31 06:56 202 1 gusting 3 25.6
2014-Aug-31 06:51 25.6
2014-Aug-31 06:46 25.6
2014-Aug-31 06:41 022 7 gusting 11 25.6
2014-Aug-31 06:36 045 3 gusting 5 25.6
2014-Aug-31 06:31 022 2 gusting 5 25.0
2014-Aug-31 06:26 045 4 gusting 6 25.0
2014-Aug-31 06:21 045 2 gusting 8 25.0
2014-Aug-31 06:16 315 1 gusting 3 24.4
2014-Aug-31 06:11 24.4
2014-Aug-31 06:06 022 3 gusting 5 24.4
2014-Aug-31 06:01 022 5 gusting 9 24.4
2014-Aug-31 05:56 24.4
2014-Aug-31 05:51 045 6 gusting 6 23.9
2014-Aug-31 05:46 337 2 gusting 4 23.9
2014-Aug-31 05:41 23.3
2014-Aug-31 05:36 022 4 gusting 6 23.3
2014-Aug-31 05:31 23.3
2014-Aug-31 05:26 292 1 gusting 3 23.3
2014-Aug-31 05:21 225 1 gusting 1 23.3
2014-Aug-31 05:16 225 1 gusting 2 22.8
2014-Aug-31 05:11 337 1 gusting 2 22.8
2014-Aug-31 05:06 112 1 gusting 3 22.2
2014-Aug-31 05:01 067 5 gusting 7 22.2
2014-Aug-31 04:56 292 3 gusting 5 22.2
2014-Aug-31 04:51 21.7
2014-Aug-31 04:46 292 3 gusting 4 21.1
2014-Aug-31 04:41 20.6
2014-Aug-31 04:36 337 3 gusting 6 20.0
2014-Aug-31 04:31 270 4 gusting 6 19.4
2014-Aug-31 04:26 315 0 gusting 1 18.9
2014-Aug-31 04:21 315 3 gusting 4 18.9
2014-Aug-31 04:16 292 1 gusting 3 18.9
2014-Aug-31 04:11 18.9
2014-Aug-31 04:06 270 3 gusting 5 18.9
2014-Aug-31 04:01 315 2 gusting 4 18.9
2014-Aug-31 03:56 270 2 gusting 3 18.9
2014-Aug-31 03:51 292 2 gusting 4 18.9
2014-Aug-31 03:46 315 1 gusting 1 18.9
2014-Aug-31 03:41 315 3 gusting 6 18.9
2014-Aug-31 03:36 270 1 gusting 2 18.9
2014-Aug-31 03:31 315 1 gusting 2 18.9
2014-Aug-31 03:26 270 1 gusting 4 18.9
2014-Aug-31 03:21 315 2 gusting 4 18.9
2014-Aug-31 03:16 315 2 gusting 4 18.9
2014-Aug-31 03:11 247 2 gusting 3 18.3
2014-Aug-31 03:06 337 2 gusting 5 18.3
2014-Aug-31 03:01 18.9
2014-Aug-31 02:56 270 0 gusting 2 18.9
2014-Aug-31 02:51 337 3 gusting 4 18.9
2014-Aug-31 02:46 315 1 gusting 3 18.9
2014-Aug-31 02:41 315 3 gusting 5 18.9
2014-Aug-31 02:36 315 3 gusting 5 18.3
2014-Aug-31 02:31 045 1 gusting 3 18.3
2014-Aug-31 02:26 022 0 gusting 2 18.3
2014-Aug-31 02:21 292 0 gusting 1 18.3
2014-Aug-31 02:16 315 2 gusting 3 18.3
2014-Aug-31 02:11 337 0 gusting 1 18.9
2014-Aug-31 02:06 315 1 gusting 4 18.9
2014-Aug-31 02:01 022 3 gusting 4 18.3
2014-Aug-31 01:56 18.3
2014-Aug-31 01:51 315 1 gusting 4 18.3
2014-Aug-31 01:46 270 1 gusting 3 18.9
2014-Aug-31 01:41 315 1 gusting 3 18.9
2014-Aug-31 01:36 022 2 gusting 3 18.3
2014-Aug-31 01:31 045 1 gusting 3 18.3
2014-Aug-31 01:26 225 0 gusting 2 18.9
2014-Aug-31 01:21 292 1 gusting 1 18.9
2014-Aug-31 01:16 292 1 gusting 2 18.9
2014-Aug-31 01:11 270 3 gusting 4 18.9
2014-Aug-31 01:06 270 2 gusting 3 18.9
2014-Aug-31 01:01 315 0 gusting 2 18.9
2014-Aug-31 00:56 247 2 gusting 3 18.9
2014-Aug-31 00:51 247 1 gusting 2 18.9
2014-Aug-31 00:46 247 3 gusting 5 18.9
2014-Aug-31 00:41 315 3 gusting 5 18.9
2014-Aug-31 00:36 225 3 gusting 4 18.9
2014-Aug-31 00:31 247 0 gusting 2 18.9
2014-Aug-31 00:26 292 1 gusting 2 19.4
2014-Aug-31 00:21 270 3 gusting 6 19.4
2014-Aug-31 00:16 270 2 gusting 3 19.4
2014-Aug-31 00:11 270 2 gusting 4 19.4
2014-Aug-31 00:06 315 2 gusting 4 19.4
2014-Aug-31 00:01 315 2 gusting 4 19.4
2014-Aug-30 23:56 292 0 gusting 1 19.4
2014-Aug-30 23:51 247 2 gusting 3 19.4
2014-Aug-30 23:46 337 1 gusting 3 19.4
2014-Aug-30 23:41 270 1 gusting 4 19.4
2014-Aug-30 23:36 225 2 gusting 3 19.4
2014-Aug-30 23:31 270 1 gusting 3 19.4
2014-Aug-30 23:26 292 5 gusting 6 19.4
2014-Aug-30 23:21 157 19.4
2014-Aug-30 23:16 292 2 gusting 5 19.4
2014-Aug-30 23:11 270 1 gusting 3 19.4
2014-Aug-30 23:06 270 2 gusting 3 19.4
2014-Aug-30 23:01 337 1 gusting 3 19.4
2014-Aug-30 22:56 247 2 gusting 4 19.4
2014-Aug-30 22:51 225 3 gusting 5 19.4
2014-Aug-30 22:46 337 3 gusting 5 19.4
2014-Aug-30 22:41 247 3 gusting 4 19.4
2014-Aug-30 22:36 292 1 gusting 3 19.4
2014-Aug-30 22:31 315 3 gusting 3 19.4
2014-Aug-30 22:26 292 2 gusting 3 19.4
2014-Aug-30 22:21 247 3 gusting 5 19.4
2014-Aug-30 22:16 20.0
2014-Aug-30 22:11 270 3 gusting 5 20.0
2014-Aug-30 22:06 270 2 gusting 4 20.0
2014-Aug-30 22:01 19.4
2014-Aug-30 21:56 292 0 gusting 1 19.4
2014-Aug-30 21:51 19.4
2014-Aug-30 21:46 135 2 gusting 3 19.4
2014-Aug-30 21:41 022 2 gusting 5 19.4
2014-Aug-30 21:36 202 1 gusting 3 19.4
2014-Aug-30 21:31 315 2 gusting 2 18.9
2014-Aug-30 21:26 292 1 gusting 2 18.9
2014-Aug-30 21:21 270 1 gusting 3 18.9
2014-Aug-30 21:16 18.9
2014-Aug-30 21:11 270 3 gusting 4 18.9
2014-Aug-30 21:06 292 0 gusting 1 18.9
2014-Aug-30 21:01 315 2 gusting 2 18.9